sensor_id;sensor_type;location;lat;lon;timestamp;P1;durP1;ratioP1;P2;durP2;ratioP2
73296;SDS011;61524;50.938;11.396;2023-02-28T00:01:06;8.68;;;3.65;;
73296;SDS011;61524;50.938;11.396;2023-02-28T00:03:31;6.13;;;3.22;;
73296;SDS011;61524;50.938;11.396;2023-02-28T00:06:00;6.03;;;3.15;;
73296;SDS011;61524;50.938;11.396;2023-02-28T00:08:25;10.18;;;3.95;;
73296;SDS011;61524;50.938;11.396;2023-02-28T00:10:52;6.57;;;3.13;;
73296;SDS011;61524;50.938;11.396;2023-02-28T00:13:17;6.70;;;4.13;;
73296;SDS011;61524;50.938;11.396;2023-02-28T00:15:42;11.13;;;3.87;;
73296;SDS011;61524;50.938;11.396;2023-02-28T00:18:07;7.28;;;3.67;;
73296;SDS011;61524;50.938;11.396;2023-02-28T00:20:33;10.05;;;4.10;;
73296;SDS011;61524;50.938;11.396;2023-02-28T00:22:58;10.63;;;3.67;;
73296;SDS011;61524;50.938;11.396;2023-02-28T00:25:24;7.57;;;3.43;;
73296;SDS011;61524;50.938;11.396;2023-02-28T00:27:49;8.35;;;3.65;;
73296;SDS011;61524;50.938;11.396;2023-02-28T00:32:41;8.00;;;3.50;;
73296;SDS011;61524;50.938;11.396;2023-02-28T00:35:07;7.22;;;3.90;;
73296;SDS011;61524;50.938;11.396;2023-02-28T00:37:32;7.40;;;3.75;;
73296;SDS011;61524;50.938;11.396;2023-02-28T00:39:58;8.98;;;4.13;;
73296;SDS011;61524;50.938;11.396;2023-02-28T00:42:23;7.83;;;4.13;;
73296;SDS011;61524;50.938;11.396;2023-02-28T00:44:49;7.07;;;3.78;;
73296;SDS011;61524;50.938;11.396;2023-02-28T00:47:14;7.53;;;4.20;;
73296;SDS011;61524;50.938;11.396;2023-02-28T00:49:40;8.45;;;4.05;;
73296;SDS011;61524;50.938;11.396;2023-02-28T00:52:05;8.98;;;3.85;;
73296;SDS011;61524;50.938;11.396;2023-02-28T00:54:30;8.18;;;4.43;;
73296;SDS011;61524;50.938;11.396;2023-02-28T00:56:56;8.02;;;3.60;;
73296;SDS011;61524;50.938;11.396;2023-02-28T00:59:21;8.50;;;4.25;;
73296;SDS011;61524;50.938;11.396;2023-02-28T01:01:47;6.17;;;4.10;;
73296;SDS011;61524;50.938;11.396;2023-02-28T01:04:12;9.77;;;4.97;;
73296;SDS011;61524;50.938;11.396;2023-02-28T01:06:38;6.25;;;3.90;;
73296;SDS011;61524;50.938;11.396;2023-02-28T01:09:04;6.32;;;3.55;;
73296;SDS011;61524;50.938;11.396;2023-02-28T01:11:30;6.50;;;3.50;;
73296;SDS011;61524;50.938;11.396;2023-02-28T01:13:55;7.38;;;3.78;;
73296;SDS011;61524;50.938;11.396;2023-02-28T01:16:20;6.80;;;3.77;;
73296;SDS011;61524;50.938;11.396;2023-02-28T01:18:46;7.55;;;4.13;;
73296;SDS011;61524;50.938;11.396;2023-02-28T01:21:13;7.03;;;3.30;;
73296;SDS011;61524;50.938;11.396;2023-02-28T01:23:39;7.90;;;4.00;;
73296;SDS011;61524;50.938;11.396;2023-02-28T01:26:22;8.18;;;4.03;;
73296;SDS011;61524;50.938;11.396;2023-02-28T01:28:48;7.03;;;3.40;;
73296;SDS011;61524;50.938;11.396;2023-02-28T01:31:14;7.28;;;4.18;;
73296;SDS011;61524;50.938;11.396;2023-02-28T01:33:40;6.45;;;4.30;;
73296;SDS011;61524;50.938;11.396;2023-02-28T01:36:06;8.87;;;4.07;;
73296;SDS011;61524;50.938;11.396;2023-02-28T01:38:32;6.88;;;3.75;;
73296;SDS011;61524;50.938;11.396;2023-02-28T01:40:58;8.02;;;3.70;;
73296;SDS011;61524;50.938;11.396;2023-02-28T01:43:27;7.70;;;4.20;;
73296;SDS011;61524;50.938;11.396;2023-02-28T01:45:54;6.28;;;3.63;;
73296;SDS011;61524;50.938;11.396;2023-02-28T01:48:21;6.82;;;3.45;;
73296;SDS011;61524;50.938;11.396;2023-02-28T01:50:47;11.43;;;4.38;;
73296;SDS011;61524;50.938;11.396;2023-02-28T01:53:16;5.85;;;3.47;;
73296;SDS011;61524;50.938;11.396;2023-02-28T01:55:43;10.57;;;4.60;;
73296;SDS011;61524;50.938;11.396;2023-02-28T01:58:10;6.88;;;3.70;;
73296;SDS011;61524;50.938;11.396;2023-02-28T02:00:35;6.35;;;3.08;;
73296;SDS011;61524;50.938;11.396;2023-02-28T02:03:08;6.95;;;3.85;;
73296;SDS011;61524;50.938;11.396;2023-02-28T02:05:34;5.45;;;3.25;;
73296;SDS011;61524;50.938;11.396;2023-02-28T02:08:02;6.95;;;3.38;;
73296;SDS011;61524;50.938;11.396;2023-02-28T02:13:19;6.15;;;3.33;;
73296;SDS011;61524;50.938;11.396;2023-02-28T02:15:57;5.30;;;3.30;;
73296;SDS011;61524;50.938;11.396;2023-02-28T02:21:31;6.47;;;3.40;;
73296;SDS011;61524;50.938;11.396;2023-02-28T02:34:07;6.68;;;3.58;;
73296;SDS011;61524;50.938;11.396;2023-02-28T02:39:19;7.63;;;3.70;;
73296;SDS011;61524;50.938;11.396;2023-02-28T02:41:49;8.18;;;3.47;;
73296;SDS011;61524;50.938;11.396;2023-02-28T02:46:47;6.57;;;3.47;;
73296;SDS011;61524;50.938;11.396;2023-02-28T02:49:18;5.80;;;3.42;;
73296;SDS011;61524;50.938;11.396;2023-02-28T02:51:45;8.57;;;4.13;;
73296;SDS011;61524;50.938;11.396;2023-02-28T02:54:13;7.55;;;3.95;;
73296;SDS011;61524;50.938;11.396;2023-02-28T02:56:41;7.15;;;4.40;;
73296;SDS011;61524;50.938;11.396;2023-02-28T02:59:08;5.78;;;3.53;;
73296;SDS011;61524;50.938;11.396;2023-02-28T03:01:34;7.57;;;3.63;;
73296;SDS011;61524;50.938;11.396;2023-02-28T03:04:02;5.90;;;2.92;;
73296;SDS011;61524;50.938;11.396;2023-02-28T03:06:27;6.90;;;3.13;;
73296;SDS011;61524;50.938;11.396;2023-02-28T03:08:53;5.50;;;3.63;;
73296;SDS011;61524;50.938;11.396;2023-02-28T03:11:19;5.78;;;3.00;;
73296;SDS011;61524;50.938;11.396;2023-02-28T03:13:58;6.57;;;3.60;;
73296;SDS011;61524;50.938;11.396;2023-02-28T03:16:49;6.47;;;2.80;;
73296;SDS011;61524;50.938;11.396;2023-02-28T03:19:22;6.72;;;3.47;;
73296;SDS011;61524;50.938;11.396;2023-02-28T03:21:54;7.47;;;3.40;;
73296;SDS011;61524;50.938;11.396;2023-02-28T03:24:32;7.88;;;2.83;;
73296;SDS011;61524;50.938;11.396;2023-02-28T03:27:03;5.53;;;3.05;;
73296;SDS011;61524;50.938;11.396;2023-02-28T03:29:39;7.00;;;3.50;;
73296;SDS011;61524;50.938;11.396;2023-02-28T03:32:11;7.82;;;3.33;;
73296;SDS011;61524;50.938;11.396;2023-02-28T03:34:41;5.95;;;3.13;;
73296;SDS011;61524;50.938;11.396;2023-02-28T03:39:36;6.25;;;3.28;;
73296;SDS011;61524;50.938;11.396;2023-02-28T03:42:08;6.00;;;3.10;;
73296;SDS011;61524;50.938;11.396;2023-02-28T03:44:36;6.38;;;3.75;;
73296;SDS011;61524;50.938;11.396;2023-02-28T03:47:04;6.05;;;3.25;;
73296;SDS011;61524;50.938;11.396;2023-02-28T03:49:36;7.80;;;3.63;;
73296;SDS011;61524;50.938;11.396;2023-02-28T03:52:08;7.63;;;3.55;;
73296;SDS011;61524;50.938;11.396;2023-02-28T03:54:35;6.70;;;4.22;;
73296;SDS011;61524;50.938;11.396;2023-02-28T03:59:48;5.97;;;3.58;;
73296;SDS011;61524;50.938;11.396;2023-02-28T04:02:14;7.90;;;3.75;;
73296;SDS011;61524;50.938;11.396;2023-02-28T04:04:40;8.50;;;4.33;;
73296;SDS011;61524;50.938;11.396;2023-02-28T04:07:10;8.55;;;4.28;;
73296;SDS011;61524;50.938;11.396;2023-02-28T04:09:36;7.03;;;3.30;;
73296;SDS011;61524;50.938;11.396;2023-02-28T04:12:01;7.57;;;3.85;;
73296;SDS011;61524;50.938;11.396;2023-02-28T04:14:26;6.53;;;3.90;;
73296;SDS011;61524;50.938;11.396;2023-02-28T04:16:52;6.72;;;3.20;;
73296;SDS011;61524;50.938;11.396;2023-02-28T04:19:17;6.13;;;3.42;;
73296;SDS011;61524;50.938;11.396;2023-02-28T04:21:44;8.07;;;3.60;;
73296;SDS011;61524;50.938;11.396;2023-02-28T04:24:10;6.72;;;3.30;;
73296;SDS011;61524;50.938;11.396;2023-02-28T04:26:39;6.95;;;3.53;;
73296;SDS011;61524;50.938;11.396;2023-02-28T04:29:05;5.65;;;3.28;;
73296;SDS011;61524;50.938;11.396;2023-02-28T04:31:30;6.78;;;2.72;;
73296;SDS011;61524;50.938;11.396;2023-02-28T04:33:56;4.55;;;2.53;;
73296;SDS011;61524;50.938;11.396;2023-02-28T04:36:21;4.97;;;3.20;;
73296;SDS011;61524;50.938;11.396;2023-02-28T04:38:48;6.88;;;3.28;;
73296;SDS011;61524;50.938;11.396;2023-02-28T04:41:14;6.03;;;2.85;;
73296;SDS011;61524;50.938;11.396;2023-02-28T04:43:39;5.97;;;3.20;;
73296;SDS011;61524;50.938;11.396;2023-02-28T04:46:05;5.75;;;2.97;;
73296;SDS011;61524;50.938;11.396;2023-02-28T04:48:31;6.53;;;3.10;;
73296;SDS011;61524;50.938;11.396;2023-02-28T04:51:03;6.18;;;3.28;;
73296;SDS011;61524;50.938;11.396;2023-02-28T04:53:30;7.57;;;3.05;;
73296;SDS011;61524;50.938;11.396;2023-02-28T04:55:56;6.05;;;2.60;;
73296;SDS011;61524;50.938;11.396;2023-02-28T04:58:21;5.68;;;2.65;;
73296;SDS011;61524;50.938;11.396;2023-02-28T05:00:51;6.28;;;2.70;;
73296;SDS011;61524;50.938;11.396;2023-02-28T05:03:17;5.82;;;2.83;;
73296;SDS011;61524;50.938;11.396;2023-02-28T05:05:42;6.28;;;3.33;;
73296;SDS011;61524;50.938;11.396;2023-02-28T05:08:07;7.63;;;3.57;;
73296;SDS011;61524;50.938;11.396;2023-02-28T05:10:34;10.55;;;3.67;;
73296;SDS011;61524;50.938;11.396;2023-02-28T05:13:00;6.72;;;3.22;;
73296;SDS011;61524;50.938;11.396;2023-02-28T05:15:25;5.63;;;2.85;;
73296;SDS011;61524;50.938;11.396;2023-02-28T05:17:50;6.00;;;2.90;;
73296;SDS011;61524;50.938;11.396;2023-02-28T05:20:16;6.57;;;2.90;;
73296;SDS011;61524;50.938;11.396;2023-02-28T05:22:41;4.75;;;2.28;;
73296;SDS011;61524;50.938;11.396;2023-02-28T05:25:08;5.80;;;3.00;;
73296;SDS011;61524;50.938;11.396;2023-02-28T05:27:36;6.20;;;2.75;;
73296;SDS011;61524;50.938;11.396;2023-02-28T05:30:01;5.77;;;3.53;;
73296;SDS011;61524;50.938;11.396;2023-02-28T05:32:28;6.10;;;3.08;;
73296;SDS011;61524;50.938;11.396;2023-02-28T05:34:53;10.37;;;3.93;;
73296;SDS011;61524;50.938;11.396;2023-02-28T05:37:19;5.87;;;3.10;;
73296;SDS011;61524;50.938;11.396;2023-02-28T05:39:44;8.00;;;3.70;;
73296;SDS011;61524;50.938;11.396;2023-02-28T05:42:09;7.13;;;3.13;;
73296;SDS011;61524;50.938;11.396;2023-02-28T05:44:35;5.40;;;2.90;;
73296;SDS011;61524;50.938;11.396;2023-02-28T05:47:00;5.35;;;2.63;;
73296;SDS011;61524;50.938;11.396;2023-02-28T05:49:25;7.87;;;3.17;;
73296;SDS011;61524;50.938;11.396;2023-02-28T05:51:51;5.07;;;2.88;;
73296;SDS011;61524;50.938;11.396;2023-02-28T05:54:16;6.17;;;3.40;;
73296;SDS011;61524;50.938;11.396;2023-02-28T05:56:41;6.43;;;3.47;;
73296;SDS011;61524;50.938;11.396;2023-02-28T05:59:09;6.20;;;3.15;;
73296;SDS011;61524;50.938;11.396;2023-02-28T06:01:35;7.72;;;3.33;;
73296;SDS011;61524;50.938;11.396;2023-02-28T06:04:01;7.35;;;3.58;;
73296;SDS011;61524;50.938;11.396;2023-02-28T06:06:27;7.78;;;3.70;;
73296;SDS011;61524;50.938;11.396;2023-02-28T06:08:53;8.40;;;3.03;;
73296;SDS011;61524;50.938;11.396;2023-02-28T06:11:19;5.63;;;2.85;;
73296;SDS011;61524;50.938;11.396;2023-02-28T06:13:45;5.65;;;3.53;;
73296;SDS011;61524;50.938;11.396;2023-02-28T06:16:11;5.97;;;3.28;;
73296;SDS011;61524;50.938;11.396;2023-02-28T06:18:36;7.88;;;3.22;;
73296;SDS011;61524;50.938;11.396;2023-02-28T06:21:02;8.35;;;3.05;;
73296;SDS011;61524;50.938;11.396;2023-02-28T06:23:27;6.50;;;3.35;;
73296;SDS011;61524;50.938;11.396;2023-02-28T06:25:52;6.75;;;2.60;;
73296;SDS011;61524;50.938;11.396;2023-02-28T06:28:18;5.82;;;2.55;;
73296;SDS011;61524;50.938;11.396;2023-02-28T06:30:43;8.05;;;3.67;;
73296;SDS011;61524;50.938;11.396;2023-02-28T06:33:09;7.93;;;4.35;;
73296;SDS011;61524;50.938;11.396;2023-02-28T06:35:34;7.60;;;3.70;;
73296;SDS011;61524;50.938;11.396;2023-02-28T06:38:00;8.15;;;4.15;;
73296;SDS011;61524;50.938;11.396;2023-02-28T06:40:25;8.77;;;3.67;;
73296;SDS011;61524;50.938;11.396;2023-02-28T06:42:50;6.43;;;3.90;;
73296;SDS011;61524;50.938;11.396;2023-02-28T06:45:15;7.57;;;3.53;;
73296;SDS011;61524;50.938;11.396;2023-02-28T06:47:41;10.35;;;4.05;;
73296;SDS011;61524;50.938;11.396;2023-02-28T06:50:08;7.60;;;3.40;;
73296;SDS011;61524;50.938;11.396;2023-02-28T06:52:34;9.45;;;4.25;;
73296;SDS011;61524;50.938;11.396;2023-02-28T06:55:01;8.32;;;3.25;;
73296;SDS011;61524;50.938;11.396;2023-02-28T06:57:27;8.10;;;4.28;;
73296;SDS011;61524;50.938;11.396;2023-02-28T06:59:55;7.78;;;4.00;;
73296;SDS011;61524;50.938;11.396;2023-02-28T07:02:20;9.13;;;3.00;;
73296;SDS011;61524;50.938;11.396;2023-02-28T07:04:45;9.93;;;3.87;;
73296;SDS011;61524;50.938;11.396;2023-02-28T07:07:11;8.85;;;3.75;;
73296;SDS011;61524;50.938;11.396;2023-02-28T07:09:37;6.20;;;2.70;;
73296;SDS011;61524;50.938;11.396;2023-02-28T07:12:02;7.93;;;3.00;;
73296;SDS011;61524;50.938;11.396;2023-02-28T07:14:27;7.32;;;4.40;;
73296;SDS011;61524;50.938;11.396;2023-02-28T07:16:52;6.93;;;3.33;;
73296;SDS011;61524;50.938;11.396;2023-02-28T07:19:18;9.03;;;4.13;;
73296;SDS011;61524;50.938;11.396;2023-02-28T07:21:43;7.50;;;3.47;;
73296;SDS011;61524;50.938;11.396;2023-02-28T07:24:08;12.47;;;4.77;;
73296;SDS011;61524;50.938;11.396;2023-02-28T07:26:34;8.57;;;3.70;;
73296;SDS011;61524;50.938;11.396;2023-02-28T07:28:59;9.13;;;4.13;;
73296;SDS011;61524;50.938;11.396;2023-02-28T07:31:24;8.88;;;3.67;;
73296;SDS011;61524;50.938;11.396;2023-02-28T07:33:50;10.10;;;3.90;;
73296;SDS011;61524;50.938;11.396;2023-02-28T07:36:16;7.37;;;3.80;;
73296;SDS011;61524;50.938;11.396;2023-02-28T07:38:43;10.48;;;4.03;;
73296;SDS011;61524;50.938;11.396;2023-02-28T07:41:09;7.78;;;4.00;;
73296;SDS011;61524;50.938;11.396;2023-02-28T07:43:35;6.30;;;3.13;;
73296;SDS011;61524;50.938;11.396;2023-02-28T07:46:04;9.88;;;3.67;;
73296;SDS011;61524;50.938;11.396;2023-02-28T07:48:29;6.55;;;2.95;;
73296;SDS011;61524;50.938;11.396;2023-02-28T07:50:55;8.33;;;2.97;;
73296;SDS011;61524;50.938;11.396;2023-02-28T07:53:20;5.05;;;3.03;;
73296;SDS011;61524;50.938;11.396;2023-02-28T07:55:46;7.17;;;3.77;;
73296;SDS011;61524;50.938;11.396;2023-02-28T07:58:11;6.07;;;3.27;;
73296;SDS011;61524;50.938;11.396;2023-02-28T08:00:36;5.67;;;2.57;;
73296;SDS011;61524;50.938;11.396;2023-02-28T08:03:01;6.53;;;2.90;;
73296;SDS011;61524;50.938;11.396;2023-02-28T08:05:27;7.70;;;3.10;;
73296;SDS011;61524;50.938;11.396;2023-02-28T08:07:52;5.33;;;2.80;;
73296;SDS011;61524;50.938;11.396;2023-02-28T08:10:18;7.00;;;3.08;;
73296;SDS011;61524;50.938;11.396;2023-02-28T08:12:43;6.63;;;3.00;;
73296;SDS011;61524;50.938;11.396;2023-02-28T08:15:09;6.00;;;2.93;;
73296;SDS011;61524;50.938;11.396;2023-02-28T08:17:34;7.55;;;2.40;;
73296;SDS011;61524;50.938;11.396;2023-02-28T08:19:59;7.13;;;2.53;;
73296;SDS011;61524;50.938;11.396;2023-02-28T08:22:24;5.77;;;2.93;;
73296;SDS011;61524;50.938;11.396;2023-02-28T08:24:50;8.13;;;3.83;;
73296;SDS011;61524;50.938;11.396;2023-02-28T08:27:15;4.83;;;2.60;;
73296;SDS011;61524;50.938;11.396;2023-02-28T08:29:40;6.50;;;2.80;;
73296;SDS011;61524;50.938;11.396;2023-02-28T08:32:06;6.88;;;3.15;;
73296;SDS011;61524;50.938;11.396;2023-02-28T08:34:31;4.53;;;2.08;;
73296;SDS011;61524;50.938;11.396;2023-02-28T08:36:57;7.72;;;3.70;;
73296;SDS011;61524;50.938;11.396;2023-02-28T08:39:22;5.47;;;3.05;;
73296;SDS011;61524;50.938;11.396;2023-02-28T08:41:47;6.27;;;3.17;;
73296;SDS011;61524;50.938;11.396;2023-02-28T08:44:13;6.93;;;3.33;;
73296;SDS011;61524;50.938;11.396;2023-02-28T08:46:38;5.57;;;2.87;;
73296;SDS011;61524;50.938;11.396;2023-02-28T08:49:03;6.10;;;3.40;;
73296;SDS011;61524;50.938;11.396;2023-02-28T08:51:29;7.03;;;3.47;;
73296;SDS011;61524;50.938;11.396;2023-02-28T08:53:55;6.22;;;2.55;;
73296;SDS011;61524;50.938;11.396;2023-02-28T08:56:21;4.60;;;2.88;;
73296;SDS011;61524;50.938;11.396;2023-02-28T08:58:47;6.63;;;2.78;;
73296;SDS011;61524;50.938;11.396;2023-02-28T09:01:14;7.18;;;3.60;;
73296;SDS011;61524;50.938;11.396;2023-02-28T09:03:40;8.15;;;4.10;;
73296;SDS011;61524;50.938;11.396;2023-02-28T09:06:06;5.85;;;3.33;;
73296;SDS011;61524;50.938;11.396;2023-02-28T09:08:31;4.03;;;2.45;;
73296;SDS011;61524;50.938;11.396;2023-02-28T09:10:57;7.95;;;2.70;;
73296;SDS011;61524;50.938;11.396;2023-02-28T09:13:26;4.32;;;2.10;;
73296;SDS011;61524;50.938;11.396;2023-02-28T09:15:51;6.35;;;2.60;;
73296;SDS011;61524;50.938;11.396;2023-02-28T09:18:17;5.75;;;2.50;;
73296;SDS011;61524;50.938;11.396;2023-02-28T09:20:43;4.82;;;2.65;;
73296;SDS011;61524;50.938;11.396;2023-02-28T09:23:08;4.70;;;2.70;;
73296;SDS011;61524;50.938;11.396;2023-02-28T09:25:34;3.40;;;2.25;;
73296;SDS011;61524;50.938;11.396;2023-02-28T09:28:00;6.55;;;1.65;;
73296;SDS011;61524;50.938;11.396;2023-02-28T09:30:25;6.25;;;2.83;;
73296;SDS011;61524;50.938;11.396;2023-02-28T09:32:50;6.13;;;2.95;;
73296;SDS011;61524;50.938;11.396;2023-02-28T09:35:17;8.88;;;3.05;;
73296;SDS011;61524;50.938;11.396;2023-02-28T09:37:42;3.63;;;1.58;;
73296;SDS011;61524;50.938;11.396;2023-02-28T09:40:08;6.33;;;3.20;;
73296;SDS011;61524;50.938;11.396;2023-02-28T09:42:34;5.40;;;3.00;;
73296;SDS011;61524;50.938;11.396;2023-02-28T09:45:05;3.57;;;2.30;;
73296;SDS011;61524;50.938;11.396;2023-02-28T09:47:36;6.60;;;2.45;;
73296;SDS011;61524;50.938;11.396;2023-02-28T09:52:43;6.90;;;2.40;;
73296;SDS011;61524;50.938;11.396;2023-02-28T09:55:22;4.43;;;2.38;;
73296;SDS011;61524;50.938;11.396;2023-02-28T09:57:50;5.95;;;2.78;;
73296;SDS011;61524;50.938;11.396;2023-02-28T10:08:13;6.07;;;2.55;;
73296;SDS011;61524;50.938;11.396;2023-02-28T10:10:49;5.32;;;2.13;;
73296;SDS011;61524;50.938;11.396;2023-02-28T10:15:44;5.65;;;2.63;;
73296;SDS011;61524;50.938;11.396;2023-02-28T10:18:12;5.55;;;2.58;;
73296;SDS011;61524;50.938;11.396;2023-02-28T10:20:40;5.13;;;2.30;;
73296;SDS011;61524;50.938;11.396;2023-02-28T10:25:35;4.03;;;2.10;;
73296;SDS011;61524;50.938;11.396;2023-02-28T10:28:09;4.72;;;2.75;;
73296;SDS011;61524;50.938;11.396;2023-02-28T10:30:36;4.72;;;2.45;;
73296;SDS011;61524;50.938;11.396;2023-02-28T10:33:01;6.80;;;2.75;;
73296;SDS011;61524;50.938;11.396;2023-02-28T10:35:27;5.38;;;2.60;;
73296;SDS011;61524;50.938;11.396;2023-02-28T10:37:57;4.53;;;1.77;;
73296;SDS011;61524;50.938;11.396;2023-02-28T10:43:02;5.67;;;2.83;;
73296;SDS011;61524;50.938;11.396;2023-02-28T10:45:28;6.45;;;2.78;;
73296;SDS011;61524;50.938;11.396;2023-02-28T10:47:56;5.75;;;3.08;;
73296;SDS011;61524;50.938;11.396;2023-02-28T10:55:55;6.78;;;3.05;;
73296;SDS011;61524;50.938;11.396;2023-02-28T10:58:25;5.50;;;3.33;;
73296;SDS011;61524;50.938;11.396;2023-02-28T11:00:51;4.05;;;2.13;;
73296;SDS011;61524;50.938;11.396;2023-02-28T11:03:29;5.05;;;3.00;;
73296;SDS011;61524;50.938;11.396;2023-02-28T11:05:54;5.60;;;2.78;;
73296;SDS011;61524;50.938;11.396;2023-02-28T11:08:20;5.03;;;3.00;;
73296;SDS011;61524;50.938;11.396;2023-02-28T11:10:46;5.80;;;3.33;;
73296;SDS011;61524;50.938;11.396;2023-02-28T11:13:19;5.50;;;2.47;;
73296;SDS011;61524;50.938;11.396;2023-02-28T11:16:18;4.03;;;2.50;;
73296;SDS011;61524;50.938;11.396;2023-02-28T11:18:53;4.50;;;2.65;;
73296;SDS011;61524;50.938;11.396;2023-02-28T11:21:23;5.05;;;2.92;;
73296;SDS011;61524;50.938;11.396;2023-02-28T11:23:51;5.03;;;2.05;;
73296;SDS011;61524;50.938;11.396;2023-02-28T11:26:17;7.30;;;3.50;;
73296;SDS011;61524;50.938;11.396;2023-02-28T11:29:08;3.63;;;2.30;;
73296;SDS011;61524;50.938;11.396;2023-02-28T11:31:34;4.88;;;2.67;;
73296;SDS011;61524;50.938;11.396;2023-02-28T11:33:59;5.77;;;3.10;;
73296;SDS011;61524;50.938;11.396;2023-02-28T11:36:28;12.93;;;3.23;;
73296;SDS011;61524;50.938;11.396;2023-02-28T11:38:55;7.57;;;3.80;;
73296;SDS011;61524;50.938;11.396;2023-02-28T11:46:26;4.80;;;2.45;;
73296;SDS011;61524;50.938;11.396;2023-02-28T11:51:21;7.20;;;3.27;;
73296;SDS011;61524;50.938;11.396;2023-02-28T12:04:35;6.93;;;3.33;;
73296;SDS011;61524;50.938;11.396;2023-02-28T12:07:18;7.72;;;3.22;;
73296;SDS011;61524;50.938;11.396;2023-02-28T12:14:50;6.95;;;3.53;;
73296;SDS011;61524;50.938;11.396;2023-02-28T12:22:37;9.50;;;4.35;;
73296;SDS011;61524;50.938;11.396;2023-02-28T12:27:52;5.75;;;3.15;;
73296;SDS011;61524;50.938;11.396;2023-02-28T12:30:24;7.03;;;3.58;;
73296;SDS011;61524;50.938;11.396;2023-02-28T12:33:12;5.72;;;3.38;;
73296;SDS011;61524;50.938;11.396;2023-02-28T12:38:21;8.05;;;3.72;;
73296;SDS011;61524;50.938;11.396;2023-02-28T12:40:52;4.50;;;2.97;;
73296;SDS011;61524;50.938;11.396;2023-02-28T12:43:19;7.97;;;4.30;;
73296;SDS011;61524;50.938;11.396;2023-02-28T12:45:47;6.93;;;3.42;;
73296;SDS011;61524;50.938;11.396;2023-02-28T12:48:50;8.98;;;3.83;;
73296;SDS011;61524;50.938;11.396;2023-02-28T12:51:07;7.00;;;3.38;;
73296;SDS011;61524;50.938;11.396;2023-02-28T12:56:06;5.78;;;3.25;;
73296;SDS011;61524;50.938;11.396;2023-02-28T12:58:45;8.32;;;4.68;;
73296;SDS011;61524;50.938;11.396;2023-02-28T13:01:27;5.78;;;3.42;;
73296;SDS011;61524;50.938;11.396;2023-02-28T13:11:25;7.55;;;3.40;;
73296;SDS011;61524;50.938;11.396;2023-02-28T13:13:57;8.98;;;4.60;;
73296;SDS011;61524;50.938;11.396;2023-02-28T13:16:22;8.65;;;4.13;;
73296;SDS011;61524;50.938;11.396;2023-02-28T13:18:48;8.27;;;4.28;;
73296;SDS011;61524;50.938;11.396;2023-02-28T13:24:08;5.07;;;2.78;;
73296;SDS011;61524;50.938;11.396;2023-02-28T13:31:27;9.80;;;4.43;;
73296;SDS011;61524;50.938;11.396;2023-02-28T13:36:39;7.15;;;3.15;;
73296;SDS011;61524;50.938;11.396;2023-02-28T13:41:48;6.85;;;3.55;;
73296;SDS011;61524;50.938;11.396;2023-02-28T13:51:53;7.88;;;4.22;;
73296;SDS011;61524;50.938;11.396;2023-02-28T13:59:54;8.48;;;4.32;;
73296;SDS011;61524;50.938;11.396;2023-02-28T14:02:32;7.57;;;4.18;;
73296;SDS011;61524;50.938;11.396;2023-02-28T14:05:01;6.43;;;3.25;;
73296;SDS011;61524;50.938;11.396;2023-02-28T14:07:31;9.98;;;4.78;;
73296;SDS011;61524;50.938;11.396;2023-02-28T14:09:59;8.35;;;4.93;;
73296;SDS011;61524;50.938;11.396;2023-02-28T14:17:52;10.02;;;4.55;;
73296;SDS011;61524;50.938;11.396;2023-02-28T14:20:18;10.55;;;4.38;;
73296;SDS011;61524;50.938;11.396;2023-02-28T14:25:14;5.20;;;2.50;;
73296;SDS011;61524;50.938;11.396;2023-02-28T14:38:04;8.30;;;4.00;;
73296;SDS011;61524;50.938;11.396;2023-02-28T14:40:31;7.63;;;4.75;;
73296;SDS011;61524;50.938;11.396;2023-02-28T14:43:04;11.45;;;4.45;;
73296;SDS011;61524;50.938;11.396;2023-02-28T14:45:30;7.55;;;4.55;;
73296;SDS011;61524;50.938;11.396;2023-02-28T14:47:57;9.55;;;4.97;;
73296;SDS011;61524;50.938;11.396;2023-02-28T14:50:26;8.27;;;4.75;;
73296;SDS011;61524;50.938;11.396;2023-02-28T14:52:55;5.35;;;3.13;;
73296;SDS011;61524;50.938;11.396;2023-02-28T14:55:23;6.57;;;3.08;;
73296;SDS011;61524;50.938;11.396;2023-02-28T14:57:56;8.57;;;3.85;;
73296;SDS011;61524;50.938;11.396;2023-02-28T15:00:29;14.55;;;4.60;;
73296;SDS011;61524;50.938;11.396;2023-02-28T15:02:55;7.35;;;3.50;;
73296;SDS011;61524;50.938;11.396;2023-02-28T15:05:24;7.53;;;3.65;;
73296;SDS011;61524;50.938;11.396;2023-02-28T15:08:01;8.48;;;4.38;;
73296;SDS011;61524;50.938;11.396;2023-02-28T15:10:27;8.18;;;4.38;;
73296;SDS011;61524;50.938;11.396;2023-02-28T15:12:56;7.22;;;3.05;;
73296;SDS011;61524;50.938;11.396;2023-02-28T15:18:01;9.00;;;5.28;;
73296;SDS011;61524;50.938;11.396;2023-02-28T15:20:27;8.15;;;4.88;;
73296;SDS011;61524;50.938;11.396;2023-02-28T15:22:53;7.10;;;4.13;;
73296;SDS011;61524;50.938;11.396;2023-02-28T15:25:20;10.65;;;4.57;;
73296;SDS011;61524;50.938;11.396;2023-02-28T15:27:50;9.75;;;4.80;;
73296;SDS011;61524;50.938;11.396;2023-02-28T15:30:24;11.05;;;5.30;;
73296;SDS011;61524;50.938;11.396;2023-02-28T15:33:04;8.98;;;4.95;;
73296;SDS011;61524;50.938;11.396;2023-02-28T15:35:31;11.02;;;5.85;;
73296;SDS011;61524;50.938;11.396;2023-02-28T15:38:01;8.63;;;4.70;;
73296;SDS011;61524;50.938;11.396;2023-02-28T15:40:28;6.38;;;3.40;;
73296;SDS011;61524;50.938;11.396;2023-02-28T15:43:03;7.57;;;4.45;;
73296;SDS011;61524;50.938;11.396;2023-02-28T15:48:00;9.40;;;5.05;;
73296;SDS011;61524;50.938;11.396;2023-02-28T15:50:27;8.13;;;4.70;;
73296;SDS011;61524;50.938;11.396;2023-02-28T15:52:52;8.90;;;5.05;;
73296;SDS011;61524;50.938;11.396;2023-02-28T15:55:19;10.10;;;5.27;;
73296;SDS011;61524;50.938;11.396;2023-02-28T15:57:45;7.85;;;4.45;;
73296;SDS011;61524;50.938;11.396;2023-02-28T16:00:13;10.52;;;4.65;;
73296;SDS011;61524;50.938;11.396;2023-02-28T16:02:39;11.63;;;5.80;;
73296;SDS011;61524;50.938;11.396;2023-02-28T16:07:34;8.70;;;4.32;;
73296;SDS011;61524;50.938;11.396;2023-02-28T16:09:59;9.20;;;5.40;;
73296;SDS011;61524;50.938;11.396;2023-02-28T16:12:29;12.57;;;5.82;;
73296;SDS011;61524;50.938;11.396;2023-02-28T16:14:55;9.80;;;5.28;;
73296;SDS011;61524;50.938;11.396;2023-02-28T16:17:23;12.57;;;5.70;;
73296;SDS011;61524;50.938;11.396;2023-02-28T16:19:49;10.98;;;6.20;;
73296;SDS011;61524;50.938;11.396;2023-02-28T16:22:15;10.25;;;6.22;;
73296;SDS011;61524;50.938;11.396;2023-02-28T16:24:40;9.18;;;5.07;;
73296;SDS011;61524;50.938;11.396;2023-02-28T16:27:10;9.63;;;5.55;;
73296;SDS011;61524;50.938;11.396;2023-02-28T16:29:40;12.52;;;6.38;;
73296;SDS011;61524;50.938;11.396;2023-02-28T16:32:06;14.00;;;6.35;;
73296;SDS011;61524;50.938;11.396;2023-02-28T16:34:32;10.68;;;5.47;;
73296;SDS011;61524;50.938;11.396;2023-02-28T16:36:58;10.63;;;5.60;;
73296;SDS011;61524;50.938;11.396;2023-02-28T16:39:23;11.55;;;6.80;;
73296;SDS011;61524;50.938;11.396;2023-02-28T16:41:49;11.60;;;6.28;;
73296;SDS011;61524;50.938;11.396;2023-02-28T16:44:28;12.65;;;6.25;;
73296;SDS011;61524;50.938;11.396;2023-02-28T16:49:20;11.63;;;6.00;;
73296;SDS011;61524;50.938;11.396;2023-02-28T16:51:46;9.25;;;5.47;;
73296;SDS011;61524;50.938;11.396;2023-02-28T16:54:11;11.38;;;5.70;;
73296;SDS011;61524;50.938;11.396;2023-02-28T16:56:36;14.10;;;5.90;;
73296;SDS011;61524;50.938;11.396;2023-02-28T16:59:04;11.20;;;6.18;;
73296;SDS011;61524;50.938;11.396;2023-02-28T17:01:29;11.40;;;5.53;;
73296;SDS011;61524;50.938;11.396;2023-02-28T17:03:56;11.52;;;5.93;;
73296;SDS011;61524;50.938;11.396;2023-02-28T17:06:25;11.88;;;5.80;;